Terminal Aerodrome Forecast
Issued by NWS

Home | Current Version | Previous Version | Text Only | Print | Product List | Glossary On
Versions: 1 2 3 4 5 6 7 8 9 10 11 12 13 14
000
FTUS44 KEPZ 251720
TAFLRU
TAF
KLRU 251720Z 2518/2618 26018G28KT P6SM FEW150 SCT250
     FM251900 24025G35KT P6SM FEW150 SCT250
      TEMPO 2521/2524 3SM BLDU
     FM260300 26015G25KT P6SM SCT250
     FM260700 26010KT P6SM SCT250
     FM261600 25017G27KT P6SM FEW250=

USA.gov is the U.S. government's official web portal to all federal, state and local government web resources and services.